sensor_id;sensor_type;location;lat;lon;timestamp;pressure;altitude;pressure_sealevel;temperature;humidity
72055;BME280;59936;51.490;5.436;2023-06-14T00:00:07;101284.66;;;17.44;47.45
72055;BME280;59936;51.490;5.436;2023-06-14T00:04:57;101286.72;;;17.35;47.67
72055;BME280;59936;51.490;5.436;2023-06-14T00:07:41;101288.72;;;17.27;46.80
72055;BME280;59936;51.490;5.436;2023-06-14T00:10:13;101289.97;;;17.24;47.27
72055;BME280;59936;51.490;5.436;2023-06-14T00:12:42;101293.06;;;17.21;47.38
72055;BME280;59936;51.490;5.436;2023-06-14T00:15:10;101291.16;;;17.15;47.55
72055;BME280;59936;51.490;5.436;2023-06-14T00:17:39;101296.53;;;17.08;47.96
72055;BME280;59936;51.490;5.436;2023-06-14T00:20:08;101290.47;;;17.06;47.93
72055;BME280;59936;51.490;5.436;2023-06-14T00:22:37;101290.28;;;17.08;47.84
72055;BME280;59936;51.490;5.436;2023-06-14T00:25:06;101294.03;;;17.07;47.74
72055;BME280;59936;51.490;5.436;2023-06-14T00:27:35;101295.44;;;17.03;48.08
72055;BME280;59936;51.490;5.436;2023-06-14T00:30:04;101296.66;;;17.00;48.01
72055;BME280;59936;51.490;5.436;2023-06-14T00:32:32;101300.00;;;16.96;48.19
72055;BME280;59936;51.490;5.436;2023-06-14T00:35:01;101300.56;;;16.91;48.37
72055;BME280;59936;51.490;5.436;2023-06-14T00:37:30;101295.72;;;16.87;48.47
72055;BME280;59936;51.490;5.436;2023-06-14T00:39:58;101304.03;;;16.85;48.67
72055;BME280;59936;51.490;5.436;2023-06-14T00:42:27;101304.03;;;16.85;48.67
72055;BME280;59936;51.490;5.436;2023-06-14T00:44:56;101293.34;;;16.77;48.90
72055;BME280;59936;51.490;5.436;2023-06-14T00:47:25;101309.34;;;16.72;49.17
72055;BME280;59936;51.490;5.436;2023-06-14T00:49:54;101309.34;;;16.72;49.17
72055;BME280;59936;51.490;5.436;2023-06-14T00:52:24;101304.72;;;16.66;49.21
72055;BME280;59936;51.490;5.436;2023-06-14T00:54:53;101308.19;;;16.60;49.33
72055;BME280;59936;51.490;5.436;2023-06-14T00:57:21;101298.59;;;16.57;49.31
72055;BME280;59936;51.490;5.436;2023-06-14T00:59:50;101300.03;;;16.53;49.38
72055;BME280;59936;51.490;5.436;2023-06-14T01:02:18;101308.72;;;16.49;49.40
72055;BME280;59936;51.490;5.436;2023-06-14T01:04:49;101308.72;;;16.49;49.40
72055;BME280;59936;51.490;5.436;2023-06-14T01:13:29;101307.94;;;16.33;49.47
72055;BME280;59936;51.490;5.436;2023-06-14T01:16:02;101306.03;;;16.27;49.41
72055;BME280;59936;51.490;5.436;2023-06-14T01:18:33;101304.72;;;16.23;49.57
72055;BME280;59936;51.490;5.436;2023-06-14T01:21:02;101307.81;;;16.20;49.49
72055;BME280;59936;51.490;5.436;2023-06-14T01:23:31;101306.50;;;16.16;49.64
72055;BME280;59936;51.490;5.436;2023-06-14T01:26:01;101304.19;;;16.13;49.47
72055;BME280;59936;51.490;5.436;2023-06-14T01:28:30;101306.47;;;16.10;49.56
72055;BME280;59936;51.490;5.436;2023-06-14T01:31:02;101307.88;;;16.05;49.70
72055;BME280;59936;51.490;5.436;2023-06-14T01:33:33;101307.22;;;16.03;49.66
72055;BME280;59936;51.490;5.436;2023-06-14T01:36:05;101306.75;;;16.00;50.05
72055;BME280;59936;51.490;5.436;2023-06-14T01:38:37;101307.97;;;15.97;49.93
72055;BME280;59936;51.490;5.436;2023-06-14T01:41:06;101312.06;;;15.93;50.19
72055;BME280;59936;51.490;5.436;2023-06-14T01:43:34;101307.25;;;15.89;50.32
72055;BME280;59936;51.490;5.436;2023-06-14T01:46:04;101303.91;;;15.87;50.37
72055;BME280;59936;51.490;5.436;2023-06-14T01:48:34;101306.78;;;15.85;50.37
72055;BME280;59936;51.490;5.436;2023-06-14T01:51:03;101301.09;;;15.80;50.10
72055;BME280;59936;51.490;5.436;2023-06-14T01:53:32;101309.38;;;15.79;49.97
72055;BME280;59936;51.490;5.436;2023-06-14T01:56:01;101307.06;;;15.76;50.12
72055;BME280;59936;51.490;5.436;2023-06-14T01:58:29;101300.34;;;15.71;50.27
72055;BME280;59936;51.490;5.436;2023-06-14T02:00:58;101301.56;;;15.69;50.32
72055;BME280;59936;51.490;5.436;2023-06-14T02:03:26;101301.56;;;15.69;50.32
72055;BME280;59936;51.490;5.436;2023-06-14T02:05:55;101304.00;;;15.64;50.57
72055;BME280;59936;51.490;5.436;2023-06-14T02:08:24;101297.97;;;15.62;50.28
72055;BME280;59936;51.490;5.436;2023-06-14T02:10:52;101298.31;;;15.59;50.33
72055;BME280;59936;51.490;5.436;2023-06-14T02:13:21;101307.44;;;15.58;50.31
72055;BME280;59936;51.490;5.436;2023-06-14T02:15:49;101304.94;;;15.56;50.29
72055;BME280;59936;51.490;5.436;2023-06-14T02:18:18;101298.22;;;15.52;50.33
72055;BME280;59936;51.490;5.436;2023-06-14T02:20:47;101304.66;;;15.51;50.31
72055;BME280;59936;51.490;5.436;2023-06-14T02:23:15;101304.84;;;15.50;50.16
72055;BME280;59936;51.490;5.436;2023-06-14T02:25:44;101305.22;;;15.47;50.15
72055;BME280;59936;51.490;5.436;2023-06-14T02:28:13;101307.47;;;15.43;50.45
72055;BME280;59936;51.490;5.436;2023-06-14T02:30:41;101307.47;;;15.43;50.45
72055;BME280;59936;51.490;5.436;2023-06-14T02:33:10;101301.13;;;15.36;50.41
72055;BME280;59936;51.490;5.436;2023-06-14T02:35:39;101300.47;;;15.34;50.39
72055;BME280;59936;51.490;5.436;2023-06-14T02:38:07;101316.03;;;15.32;50.42
72055;BME280;59936;51.490;5.436;2023-06-14T02:40:36;101316.03;;;15.32;50.42
72055;BME280;59936;51.490;5.436;2023-06-14T02:43:04;101324.69;;;15.27;50.69
72055;BME280;59936;51.490;5.436;2023-06-14T02:45:33;101324.69;;;15.27;50.69
72055;BME280;59936;51.490;5.436;2023-06-14T02:48:02;101314.47;;;15.23;50.64
72055;BME280;59936;51.490;5.436;2023-06-14T02:50:30;101315.66;;;15.20;50.78
72055;BME280;59936;51.490;5.436;2023-06-14T02:52:59;101317.53;;;15.20;50.44
72055;BME280;59936;51.490;5.436;2023-06-14T02:55:28;101314.34;;;15.16;50.51
72055;BME280;59936;51.490;5.436;2023-06-14T02:57:56;101313.50;;;15.16;50.92
72055;BME280;59936;51.490;5.436;2023-06-14T03:00:25;101321.44;;;15.17;50.51
72055;BME280;59936;51.490;5.436;2023-06-14T03:02:53;101319.94;;;15.15;50.22
72055;BME280;59936;51.490;5.436;2023-06-14T03:05:22;101319.94;;;15.15;50.22
72055;BME280;59936;51.490;5.436;2023-06-14T03:07:51;101320.84;;;15.07;50.64
72055;BME280;59936;51.490;5.436;2023-06-14T03:10:19;101315.81;;;15.04;50.66
72055;BME280;59936;51.490;5.436;2023-06-14T03:12:49;101325.97;;;15.02;50.73
72055;BME280;59936;51.490;5.436;2023-06-14T03:15:18;101325.97;;;15.02;50.73
72055;BME280;59936;51.490;5.436;2023-06-14T03:17:46;101343.72;;;14.96;51.06
72055;BME280;59936;51.490;5.436;2023-06-14T03:20:15;101343.72;;;14.96;51.06
72055;BME280;59936;51.490;5.436;2023-06-14T03:22:43;101337.19;;;14.91;51.25
72055;BME280;59936;51.490;5.436;2023-06-14T03:25:12;101342.78;;;14.89;50.96
72055;BME280;59936;51.490;5.436;2023-06-14T03:27:40;101349.84;;;14.90;50.88
72055;BME280;59936;51.490;5.436;2023-06-14T03:30:09;101349.84;;;14.90;50.88
72055;BME280;59936;51.490;5.436;2023-06-14T03:32:38;101338.94;;;14.84;51.34
72055;BME280;59936;51.490;5.436;2023-06-14T03:35:07;101349.91;;;14.82;51.36
72055;BME280;59936;51.490;5.436;2023-06-14T03:37:35;101341.81;;;14.82;51.04
72055;BME280;59936;51.490;5.436;2023-06-14T03:40:04;101351.31;;;14.78;51.58
72055;BME280;59936;51.490;5.436;2023-06-14T03:42:33;101345.44;;;14.75;51.80
72055;BME280;59936;51.490;5.436;2023-06-14T03:45:02;101352.03;;;14.72;51.67
72055;BME280;59936;51.490;5.436;2023-06-14T03:47:32;101359.13;;;14.73;51.32
72055;BME280;59936;51.490;5.436;2023-06-14T03:50:03;101359.13;;;14.73;51.32
72055;BME280;59936;51.490;5.436;2023-06-14T03:52:32;101354.22;;;14.68;51.78
72055;BME280;59936;51.490;5.436;2023-06-14T03:55:01;101356.09;;;14.68;51.77
72055;BME280;59936;51.490;5.436;2023-06-14T03:57:30;101355.25;;;14.67;51.82
72055;BME280;59936;51.490;5.436;2023-06-14T03:59:58;101353.38;;;14.68;52.38
72055;BME280;59936;51.490;5.436;2023-06-14T04:02:27;101367.38;;;14.72;52.27
72055;BME280;59936;51.490;5.436;2023-06-14T04:04:55;101367.38;;;14.72;52.27
72055;BME280;59936;51.490;5.436;2023-06-14T04:07:24;101366.53;;;14.71;51.92
72055;BME280;59936;51.490;5.436;2023-06-14T04:09:52;101359.28;;;14.72;52.46
72055;BME280;59936;51.490;5.436;2023-06-14T04:12:21;101362.78;;;14.80;51.89
72055;BME280;59936;51.490;5.436;2023-06-14T04:14:50;101362.78;;;14.80;51.89
72055;BME280;59936;51.490;5.436;2023-06-14T04:17:18;101370.47;;;14.83;52.51
72055;BME280;59936;51.490;5.436;2023-06-14T04:19:47;101370.47;;;14.83;52.51
72055;BME280;59936;51.490;5.436;2023-06-14T04:22:15;101371.50;;;14.82;52.16
72055;BME280;59936;51.490;5.436;2023-06-14T04:24:44;101373.19;;;14.83;52.17
72055;BME280;59936;51.490;5.436;2023-06-14T04:27:12;101379.53;;;14.90;52.67
72055;BME280;59936;51.490;5.436;2023-06-14T04:29:41;101376.47;;;14.93;52.55
72055;BME280;59936;51.490;5.436;2023-06-14T04:32:10;101376.78;;;14.98;52.41
72055;BME280;59936;51.490;5.436;2023-06-14T04:34:38;101378.28;;;15.01;52.61
72055;BME280;59936;51.490;5.436;2023-06-14T04:37:07;101378.72;;;15.04;52.44
72055;BME280;59936;51.490;5.436;2023-06-14T04:39:35;101381.91;;;15.08;52.12
72055;BME280;59936;51.490;5.436;2023-06-14T04:42:04;101381.91;;;15.08;52.12
72055;BME280;59936;51.490;5.436;2023-06-14T04:44:32;101374.94;;;15.14;52.30
72055;BME280;59936;51.490;5.436;2023-06-14T04:47:01;101385.19;;;15.18;52.39
72055;BME280;59936;51.490;5.436;2023-06-14T04:49:30;101385.19;;;15.18;52.39
72055;BME280;59936;51.490;5.436;2023-06-14T04:51:58;101377.56;;;15.22;52.58
72055;BME280;59936;51.490;5.436;2023-06-14T04:54:27;101375.63;;;15.30;52.16
72055;BME280;59936;51.490;5.436;2023-06-14T04:56:55;101375.25;;;15.33;52.71
72055;BME280;59936;51.490;5.436;2023-06-14T04:59:24;101374.03;;;15.36;52.33
72055;BME280;59936;51.490;5.436;2023-06-14T05:01:53;101390.06;;;15.52;52.21
72055;BME280;59936;51.490;5.436;2023-06-14T05:04:21;101391.38;;;15.56;52.92
72055;BME280;59936;51.490;5.436;2023-06-14T05:06:50;101388.31;;;15.59;52.72
72055;BME280;59936;51.490;5.436;2023-06-14T05:09:18;101388.31;;;15.59;52.72
72055;BME280;59936;51.490;5.436;2023-06-14T05:11:47;101383.19;;;15.64;52.64
72055;BME280;59936;51.490;5.436;2023-06-14T05:14:16;101379.34;;;15.73;52.27
72055;BME280;59936;51.490;5.436;2023-06-14T05:16:44;101395.41;;;15.90;52.01
72055;BME280;59936;51.490;5.436;2023-06-14T05:19:13;101395.41;;;15.90;52.01
72055;BME280;59936;51.490;5.436;2023-06-14T05:21:42;101396.44;;;16.03;52.37
72055;BME280;59936;51.490;5.436;2023-06-14T05:24:10;101396.44;;;16.03;52.37
72055;BME280;59936;51.490;5.436;2023-06-14T05:26:39;101395.59;;;16.03;52.47
72055;BME280;59936;51.490;5.436;2023-06-14T05:29:07;101395.50;;;16.32;51.47
72055;BME280;59936;51.490;5.436;2023-06-14T05:31:36;101395.50;;;16.32;51.47
72055;BME280;59936;51.490;5.436;2023-06-14T05:34:05;101393.66;;;16.54;51.39
72055;BME280;59936;51.490;5.436;2023-06-14T05:36:34;101393.66;;;16.54;51.39
72055;BME280;59936;51.490;5.436;2023-06-14T05:39:02;101390.78;;;16.56;51.61
72055;BME280;59936;51.490;5.436;2023-06-14T05:41:31;101394.00;;;16.66;51.13
72055;BME280;59936;51.490;5.436;2023-06-14T05:43:59;101397.63;;;16.73;51.22
72055;BME280;59936;51.490;5.436;2023-06-14T05:46:28;101402.97;;;16.88;50.79
72055;BME280;59936;51.490;5.436;2023-06-14T05:48:56;101410.84;;;17.04;50.83
72055;BME280;59936;51.490;5.436;2023-06-14T05:51:25;101410.84;;;17.04;50.83
72055;BME280;59936;51.490;5.436;2023-06-14T05:53:54;101413.06;;;17.22;50.40
72055;BME280;59936;51.490;5.436;2023-06-14T05:56:22;101413.06;;;17.22;50.40
72055;BME280;59936;51.490;5.436;2023-06-14T05:58:51;101408.34;;;17.30;50.40
72055;BME280;59936;51.490;5.436;2023-06-14T06:01:19;101412.38;;;17.41;50.26
72055;BME280;59936;51.490;5.436;2023-06-14T06:03:48;101414.34;;;17.54;50.21
72055;BME280;59936;51.490;5.436;2023-06-14T06:06:17;101402.31;;;17.63;49.92
72055;BME280;59936;51.490;5.436;2023-06-14T06:08:45;101421.19;;;17.84;49.71
72055;BME280;59936;51.490;5.436;2023-06-14T06:11:14;101421.19;;;17.84;49.71
72055;BME280;59936;51.490;5.436;2023-06-14T06:13:42;101419.13;;;17.86;50.00
72055;BME280;59936;51.490;5.436;2023-06-14T06:16:11;101413.00;;;17.99;49.89
72055;BME280;59936;51.490;5.436;2023-06-14T06:18:39;101422.28;;;18.24;49.29
72055;BME280;59936;51.490;5.436;2023-06-14T06:21:08;101422.28;;;18.24;49.29
72055;BME280;59936;51.490;5.436;2023-06-14T06:23:36;101428.16;;;18.34;49.15
72055;BME280;59936;51.490;5.436;2023-06-14T06:26:05;101430.94;;;18.48;49.27
72055;BME280;59936;51.490;5.436;2023-06-14T06:28:34;101439.72;;;18.63;48.70
72055;BME280;59936;51.490;5.436;2023-06-14T06:31:02;101437.88;;;18.76;48.60
72055;BME280;59936;51.490;5.436;2023-06-14T06:33:31;101439.38;;;18.92;48.25
72055;BME280;59936;51.490;5.436;2023-06-14T06:35:59;101437.09;;;19.16;48.01
72055;BME280;59936;51.490;5.436;2023-06-14T06:38:28;101442.53;;;19.35;47.91
72055;BME280;59936;51.490;5.436;2023-06-14T06:40:56;101447.97;;;19.62;47.55
72055;BME280;59936;51.490;5.436;2023-06-14T06:43:25;101442.94;;;19.92;47.39
72055;BME280;59936;51.490;5.436;2023-06-14T06:45:54;101446.97;;;20.27;47.70
72055;BME280;59936;51.490;5.436;2023-06-14T06:48:22;101448.47;;;20.74;47.90
72055;BME280;59936;51.490;5.436;2023-06-14T06:50:51;101450.06;;;21.13;47.75
72055;BME280;59936;51.490;5.436;2023-06-14T06:53:19;101448.34;;;21.50;47.89
72055;BME280;59936;51.490;5.436;2023-06-14T06:55:48;101452.63;;;21.83;48.19
72055;BME280;59936;51.490;5.436;2023-06-14T06:58:16;101461.03;;;22.18;47.78
72055;BME280;59936;51.490;5.436;2023-06-14T07:00:45;101458.19;;;22.31;47.43
72055;BME280;59936;51.490;5.436;2023-06-14T07:03:14;101462.63;;;22.44;47.28
72055;BME280;59936;51.490;5.436;2023-06-14T07:05:42;101457.94;;;22.51;45.62
72055;BME280;59936;51.490;5.436;2023-06-14T07:08:11;101457.34;;;22.79;45.55
72055;BME280;59936;51.490;5.436;2023-06-14T07:10:39;101464.06;;;23.06;45.72
72055;BME280;59936;51.490;5.436;2023-06-14T07:13:08;101460.94;;;23.21;45.26
72055;BME280;59936;51.490;5.436;2023-06-14T07:15:36;101477.72;;;23.48;44.87
72055;BME280;59936;51.490;5.436;2023-06-14T07:18:05;101471.22;;;23.84;44.80
72055;BME280;59936;51.490;5.436;2023-06-14T07:20:34;101478.53;;;24.30;43.51
72055;BME280;59936;51.490;5.436;2023-06-14T07:23:02;101478.53;;;24.30;43.51
72055;BME280;59936;51.490;5.436;2023-06-14T07:25:31;101469.03;;;24.61;43.28
72055;BME280;59936;51.490;5.436;2023-06-14T07:28:00;101467.94;;;24.74;43.05
72055;BME280;59936;51.490;5.436;2023-06-14T07:30:28;101473.69;;;24.89;43.08
72055;BME280;59936;51.490;5.436;2023-06-14T07:32:57;101479.34;;;24.99;42.48
72055;BME280;59936;51.490;5.436;2023-06-14T07:35:25;101475.34;;;25.18;42.10
72055;BME280;59936;51.490;5.436;2023-06-14T07:37:54;101477.63;;;25.38;41.64
72055;BME280;59936;51.490;5.436;2023-06-14T07:40:22;101478.00;;;25.47;41.60
72055;BME280;59936;51.490;5.436;2023-06-14T07:42:51;101483.84;;;25.34;39.17
72055;BME280;59936;51.490;5.436;2023-06-14T07:45:20;101482.00;;;25.56;40.53
72055;BME280;59936;51.490;5.436;2023-06-14T07:47:48;101490.66;;;25.31;39.26
72055;BME280;59936;51.490;5.436;2023-06-14T07:50:17;101490.50;;;25.38;39.49
72055;BME280;59936;51.490;5.436;2023-06-14T07:52:45;101494.59;;;25.90;39.22
72055;BME280;59936;51.490;5.436;2023-06-14T07:55:17;101492.06;;;26.22;38.64
72055;BME280;59936;51.490;5.436;2023-06-14T07:57:46;101496.66;;;26.39;37.60
72055;BME280;59936;51.490;5.436;2023-06-14T08:00:15;101502.84;;;26.51;38.15
72055;BME280;59936;51.490;5.436;2023-06-14T08:02:44;101495.88;;;26.87;37.34
72055;BME280;59936;51.490;5.436;2023-06-14T08:05:13;101497.69;;;27.03;36.82
72055;BME280;59936;51.490;5.436;2023-06-14T08:07:47;101503.72;;;27.59;36.17
72055;BME280;59936;51.490;5.436;2023-06-14T08:10:16;101502.53;;;27.87;33.55
72055;BME280;59936;51.490;5.436;2023-06-14T08:12:44;101504.22;;;27.51;34.70
72055;BME280;59936;51.490;5.436;2023-06-14T08:15:13;101510.41;;;27.68;34.48
72055;BME280;59936;51.490;5.436;2023-06-14T08:17:45;101511.84;;;27.81;34.28
72055;BME280;59936;51.490;5.436;2023-06-14T08:20:13;101514.72;;;29.21;32.78
72055;BME280;59936;51.490;5.436;2023-06-14T08:22:43;101514.72;;;29.21;32.78
72055;BME280;59936;51.490;5.436;2023-06-14T08:25:11;101499.41;;;28.63;32.10
72055;BME280;59936;51.490;5.436;2023-06-14T08:27:40;101501.06;;;28.64;31.69
72055;BME280;59936;51.490;5.436;2023-06-14T08:30:09;101500.88;;;29.11;32.32
72055;BME280;59936;51.490;5.436;2023-06-14T08:32:38;101489.59;;;29.17;31.46
72055;BME280;59936;51.490;5.436;2023-06-14T08:35:07;101498.34;;;28.79;32.05
72055;BME280;59936;51.490;5.436;2023-06-14T08:37:40;101496.25;;;28.39;31.00
72055;BME280;59936;51.490;5.436;2023-06-14T08:40:19;101507.94;;;28.71;29.87
72055;BME280;59936;51.490;5.436;2023-06-14T08:42:51;101504.66;;;28.64;30.61
72055;BME280;59936;51.490;5.436;2023-06-14T08:45:22;101501.72;;;29.16;30.92
72055;BME280;59936;51.490;5.436;2023-06-14T08:47:53;101497.03;;;29.12;30.39
72055;BME280;59936;51.490;5.436;2023-06-14T08:50:22;101495.56;;;28.89;30.60
72055;BME280;59936;51.490;5.436;2023-06-14T08:52:54;101494.03;;;29.28;30.40
72055;BME280;59936;51.490;5.436;2023-06-14T08:55:24;101484.88;;;29.84;30.34
72055;BME280;59936;51.490;5.436;2023-06-14T08:57:58;101493.94;;;30.05;29.89
72055;BME280;59936;51.490;5.436;2023-06-14T09:00:28;101479.31;;;30.69;29.16
72055;BME280;59936;51.490;5.436;2023-06-14T09:02:56;101493.53;;;30.52;29.28
72055;BME280;59936;51.490;5.436;2023-06-14T09:05:26;101489.63;;;30.58;29.61
72055;BME280;59936;51.490;5.436;2023-06-14T09:07:55;101498.13;;;30.67;29.54
72055;BME280;59936;51.490;5.436;2023-06-14T09:10:27;101492.03;;;30.70;28.84
72055;BME280;59936;51.490;5.436;2023-06-14T09:12:56;101491.44;;;30.78;28.92
72055;BME280;59936;51.490;5.436;2023-06-14T09:15:25;101477.47;;;30.54;29.10
72055;BME280;59936;51.490;5.436;2023-06-14T09:17:54;101497.47;;;30.25;29.26
72055;BME280;59936;51.490;5.436;2023-06-14T09:20:23;101498.81;;;30.43;28.62
72055;BME280;59936;51.490;5.436;2023-06-14T09:22:53;101487.25;;;30.36;28.66
72055;BME280;59936;51.490;5.436;2023-06-14T09:25:22;101492.34;;;29.83;28.50
72055;BME280;59936;51.490;5.436;2023-06-14T09:27:51;101498.38;;;30.11;28.27
72055;BME280;59936;51.490;5.436;2023-06-14T09:30:20;101495.25;;;30.27;27.99
72055;BME280;59936;51.490;5.436;2023-06-14T09:32:49;101490.38;;;30.74;27.61
72055;BME280;59936;51.490;5.436;2023-06-14T09:35:18;101492.06;;;30.64;27.85
72055;BME280;59936;51.490;5.436;2023-06-14T09:37:47;101503.59;;;30.82;27.11
72055;BME280;59936;51.490;5.436;2023-06-14T09:40:20;101503.59;;;30.82;27.11
72055;BME280;59936;51.490;5.436;2023-06-14T09:42:49;101495.81;;;30.89;26.80
72055;BME280;59936;51.490;5.436;2023-06-14T09:45:20;101491.91;;;31.00;26.84
72055;BME280;59936;51.490;5.436;2023-06-14T09:47:49;101500.69;;;31.07;26.89
72055;BME280;59936;51.490;5.436;2023-06-14T09:50:18;101508.38;;;31.15;26.54
72055;BME280;59936;51.490;5.436;2023-06-14T09:52:47;101508.56;;;30.90;26.13
72055;BME280;59936;51.490;5.436;2023-06-14T09:55:27;101508.56;;;30.90;26.13
72055;BME280;59936;51.490;5.436;2023-06-14T09:58:00;101506.84;;;30.99;25.81
72055;BME280;59936;51.490;5.436;2023-06-14T10:00:33;101506.84;;;30.99;25.81
72055;BME280;59936;51.490;5.436;2023-06-14T10:03:12;101510.47;;;30.35;26.74
72055;BME280;59936;51.490;5.436;2023-06-14T10:05:45;101508.06;;;30.73;26.72
72055;BME280;59936;51.490;5.436;2023-06-14T10:08:17;101508.06;;;30.73;26.72
72055;BME280;59936;51.490;5.436;2023-06-14T10:10:48;101498.31;;;30.36;26.46
72055;BME280;59936;51.490;5.436;2023-06-14T10:13:17;101499.88;;;30.57;26.13
72055;BME280;59936;51.490;5.436;2023-06-14T10:19:00;101494.28;;;29.32;23.53
72055;BME280;59936;51.490;5.436;2023-06-14T10:21:59;101494.28;;;29.62;25.80
72055;BME280;59936;51.490;5.436;2023-06-14T10:24:33;101492.91;;;29.35;26.03
72055;BME280;59936;51.490;5.436;2023-06-14T10:27:13;101492.34;;;29.88;25.93
72055;BME280;59936;51.490;5.436;2023-06-14T10:32:23;101486.53;;;29.95;25.92
72055;BME280;59936;51.490;5.436;2023-06-14T10:35:01;101484.53;;;30.11;25.88
72055;BME280;59936;51.490;5.436;2023-06-14T10:37:34;101482.94;;;29.84;25.18
72055;BME280;59936;51.490;5.436;2023-06-14T10:40:03;101486.75;;;30.09;25.83
72055;BME280;59936;51.490;5.436;2023-06-14T10:42:34;101490.78;;;30.47;26.07
72055;BME280;59936;51.490;5.436;2023-06-14T10:45:10;101488.72;;;30.73;25.56
72055;BME280;59936;51.490;5.436;2023-06-14T10:47:41;101490.75;;;30.52;24.67
72055;BME280;59936;51.490;5.436;2023-06-14T10:50:10;101498.69;;;30.63;26.05
72055;BME280;59936;51.490;5.436;2023-06-14T10:52:41;101478.38;;;30.93;25.58
72055;BME280;59936;51.490;5.436;2023-06-14T10:55:16;101493.06;;;30.89;25.06
72055;BME280;59936;51.490;5.436;2023-06-14T10:57:51;101496.28;;;30.52;24.79
72055;BME280;59936;51.490;5.436;2023-06-14T11:00:23;101490.16;;;29.70;25.05
72055;BME280;59936;51.490;5.436;2023-06-14T11:06:13;101494.00;;;29.34;24.74
72055;BME280;59936;51.490;5.436;2023-06-14T11:09:20;101497.31;;;29.20;25.67
72055;BME280;59936;51.490;5.436;2023-06-14T11:11:51;101493.47;;;29.37;23.35
72055;BME280;59936;51.490;5.436;2023-06-14T11:14:22;101501.44;;;29.53;25.86
72055;BME280;59936;51.490;5.436;2023-06-14T11:16:51;101497.88;;;29.68;25.75
72055;BME280;59936;51.490;5.436;2023-06-14T11:19:21;101496.78;;;29.23;25.78
72055;BME280;59936;51.490;5.436;2023-06-14T11:21:50;101478.81;;;29.11;25.69
72055;BME280;59936;51.490;5.436;2023-06-14T11:24:22;101498.94;;;29.01;25.84
72055;BME280;59936;51.490;5.436;2023-06-14T11:26:50;101493.72;;;29.15;26.10
72055;BME280;59936;51.490;5.436;2023-06-14T11:29:20;101487.13;;;29.31;26.19
72055;BME280;59936;51.490;5.436;2023-06-14T11:31:54;101483.53;;;29.36;25.89
72055;BME280;59936;51.490;5.436;2023-06-14T11:34:24;101473.03;;;29.53;25.48
72055;BME280;59936;51.490;5.436;2023-06-14T11:36:53;101487.94;;;29.62;26.14
72055;BME280;59936;51.490;5.436;2023-06-14T11:39:24;101487.94;;;29.62;26.14
72055;BME280;59936;51.490;5.436;2023-06-14T11:41:53;101476.09;;;29.72;25.85
72055;BME280;59936;51.490;5.436;2023-06-14T11:44:21;101477.75;;;29.73;25.98
72055;BME280;59936;51.490;5.436;2023-06-14T11:46:50;101474.94;;;29.78;25.90
72055;BME280;59936;51.490;5.436;2023-06-14T11:49:19;101480.94;;;28.73;26.08
72055;BME280;59936;51.490;5.436;2023-06-14T11:51:47;101480.94;;;28.73;26.08
72055;BME280;59936;51.490;5.436;2023-06-14T11:54:16;101494.88;;;28.46;26.87
72055;BME280;59936;51.490;5.436;2023-06-14T11:56:44;101479.28;;;28.72;26.50
72055;BME280;59936;51.490;5.436;2023-06-14T11:59:13;101492.78;;;28.69;26.65
72055;BME280;59936;51.490;5.436;2023-06-14T12:01:42;101492.78;;;28.69;26.65
72055;BME280;59936;51.490;5.436;2023-06-14T12:04:11;101493.28;;;28.55;26.85
72055;BME280;59936;51.490;5.436;2023-06-14T12:06:40;101487.81;;;28.66;26.63
72055;BME280;59936;51.490;5.436;2023-06-14T12:09:08;101483.94;;;28.56;26.29
72055;BME280;59936;51.490;5.436;2023-06-14T12:11:37;101486.59;;;28.46;26.38
72055;BME280;59936;51.490;5.436;2023-06-14T12:14:08;101488.47;;;28.31;26.59
72055;BME280;59936;51.490;5.436;2023-06-14T12:16:39;101477.03;;;27.97;26.66
72055;BME280;59936;51.490;5.436;2023-06-14T12:19:17;101480.19;;;27.83;27.23
72055;BME280;59936;51.490;5.436;2023-06-14T12:21:46;101486.66;;;27.94;26.51
72055;BME280;59936;51.490;5.436;2023-06-14T12:24:16;101485.84;;;27.99;26.81
72055;BME280;59936;51.490;5.436;2023-06-14T12:26:44;101487.47;;;27.94;27.60
72055;BME280;59936;51.490;5.436;2023-06-14T12:29:13;101487.47;;;27.94;27.60
72055;BME280;59936;51.490;5.436;2023-06-14T12:31:42;101485.19;;;27.86;27.53
72055;BME280;59936;51.490;5.436;2023-06-14T12:34:10;101481.75;;;28.01;27.33
72055;BME280;59936;51.490;5.436;2023-06-14T12:36:43;101482.56;;;28.07;27.40
72055;BME280;59936;51.490;5.436;2023-06-14T12:39:12;101487.63;;;28.20;27.11
72055;BME280;59936;51.490;5.436;2023-06-14T12:41:41;101477.44;;;28.20;27.22
72055;BME280;59936;51.490;5.436;2023-06-14T12:44:11;101481.91;;;28.37;27.28
72055;BME280;59936;51.490;5.436;2023-06-14T12:46:41;101481.91;;;28.37;27.28
72055;BME280;59936;51.490;5.436;2023-06-14T12:49:11;101482.16;;;28.35;27.37
72055;BME280;59936;51.490;5.436;2023-06-14T12:51:40;101481.38;;;28.40;27.45
72055;BME280;59936;51.490;5.436;2023-06-14T12:54:09;101483.84;;;28.41;27.52
72055;BME280;59936;51.490;5.436;2023-06-14T12:56:37;101488.84;;;28.44;27.54
72055;BME280;59936;51.490;5.436;2023-06-14T12:59:06;101483.59;;;28.43;27.17
72055;BME280;59936;51.490;5.436;2023-06-14T13:01:34;101484.09;;;28.35;27.08
72055;BME280;59936;51.490;5.436;2023-06-14T13:04:05;101489.63;;;28.40;26.92
72055;BME280;59936;51.490;5.436;2023-06-14T13:06:34;101486.84;;;28.35;26.68
72055;BME280;59936;51.490;5.436;2023-06-14T13:09:03;101487.41;;;28.37;26.77
72055;BME280;59936;51.490;5.436;2023-06-14T13:11:31;101479.44;;;28.45;26.85
72055;BME280;59936;51.490;5.436;2023-06-14T13:14:00;101494.53;;;28.27;26.97
72055;BME280;59936;51.490;5.436;2023-06-14T13:16:29;101494.53;;;28.27;26.97
72055;BME280;59936;51.490;5.436;2023-06-14T13:18:57;101496.69;;;28.15;26.64